sensor_id;sensor_type;location;lat;lon;timestamp;pressure;altitude;pressure_sealevel;temperature;humidity
70916;BME280;58557;50.982;-3.222;2023-12-29T00:01:46;100039.25;;;9.56;69.66
70916;BME280;58557;50.982;-3.222;2023-12-29T00:04:12;100034.14;;;9.68;69.79
70916;BME280;58557;50.982;-3.222;2023-12-29T00:06:38;100034.40;;;10.14;68.93
70916;BME280;58557;50.982;-3.222;2023-12-29T00:09:03;100035.61;;;9.80;69.99
70916;BME280;58557;50.982;-3.222;2023-12-29T00:11:29;100035.53;;;10.52;67.91
70916;BME280;58557;50.982;-3.222;2023-12-29T00:13:55;100033.20;;;10.39;69.14
70916;BME280;58557;50.982;-3.222;2023-12-29T00:16:20;100025.48;;;9.60;70.97
70916;BME280;58557;50.982;-3.222;2023-12-29T00:18:46;100034.32;;;10.19;68.43
70916;BME280;58557;50.982;-3.222;2023-12-29T00:21:12;100032.96;;;10.33;68.33
70916;BME280;58557;50.982;-3.222;2023-12-29T00:23:37;100026.55;;;10.25;67.57
70916;BME280;58557;50.982;-3.222;2023-12-29T00:26:03;100032.94;;;10.30;68.70
70916;BME280;58557;50.982;-3.222;2023-12-29T00:28:28;100024.09;;;10.05;69.93
70916;BME280;58557;50.982;-3.222;2023-12-29T00:30:53;100030.23;;;10.06;70.16
70916;BME280;58557;50.982;-3.222;2023-12-29T00:33:18;100024.59;;;9.84;70.60
70916;BME280;58557;50.982;-3.222;2023-12-29T00:35:44;100010.94;;;10.21;70.13
70916;BME280;58557;50.982;-3.222;2023-12-29T00:38:10;100011.61;;;10.43;68.19
70916;BME280;58557;50.982;-3.222;2023-12-29T00:40:35;100011.95;;;10.64;68.80
70916;BME280;58557;50.982;-3.222;2023-12-29T00:43:01;100009.94;;;10.73;66.95
70916;BME280;58557;50.982;-3.222;2023-12-29T00:45:27;99998.67;;;10.76;66.13
70916;BME280;58557;50.982;-3.222;2023-12-29T00:47:52;99988.71;;;10.65;65.51
70916;BME280;58557;50.982;-3.222;2023-12-29T00:50:17;99985.41;;;10.84;65.71
70916;BME280;58557;50.982;-3.222;2023-12-29T00:52:43;99987.25;;;11.25;64.13
70916;BME280;58557;50.982;-3.222;2023-12-29T00:55:08;99978.74;;;11.30;64.55
70916;BME280;58557;50.982;-3.222;2023-12-29T00:57:33;99980.85;;;11.57;63.31
70916;BME280;58557;50.982;-3.222;2023-12-29T01:00:00;99979.43;;;10.86;65.36
70916;BME280;58557;50.982;-3.222;2023-12-29T01:02:24;99975.13;;;11.09;65.65
70916;BME280;58557;50.982;-3.222;2023-12-29T01:04:50;99973.57;;;10.56;66.84
70916;BME280;58557;50.982;-3.222;2023-12-29T01:07:15;99968.30;;;10.86;65.28
70916;BME280;58557;50.982;-3.222;2023-12-29T01:09:41;99973.74;;;11.01;64.89
70916;BME280;58557;50.982;-3.222;2023-12-29T01:12:07;99978.61;;;11.24;64.26
70916;BME280;58557;50.982;-3.222;2023-12-29T01:14:32;99975.10;;;10.83;67.67
70916;BME280;58557;50.982;-3.222;2023-12-29T01:16:58;99969.80;;;10.49;67.46
70916;BME280;58557;50.982;-3.222;2023-12-29T01:19:23;99964.97;;;11.14;66.62
70916;BME280;58557;50.982;-3.222;2023-12-29T01:21:49;99964.11;;;10.16;68.61
70916;BME280;58557;50.982;-3.222;2023-12-29T01:24:15;99966.25;;;10.95;67.57
70916;BME280;58557;50.982;-3.222;2023-12-29T01:26:41;99960.41;;;10.26;68.62
70916;BME280;58557;50.982;-3.222;2023-12-29T01:29:06;99957.71;;;10.46;69.66
70916;BME280;58557;50.982;-3.222;2023-12-29T01:31:32;99955.74;;;10.93;67.94
70916;BME280;58557;50.982;-3.222;2023-12-29T01:33:56;99960.86;;;11.01;64.87
70916;BME280;58557;50.982;-3.222;2023-12-29T01:36:22;99950.14;;;10.83;67.54
70916;BME280;58557;50.982;-3.222;2023-12-29T01:38:47;99953.68;;;9.97;70.11
70916;BME280;58557;50.982;-3.222;2023-12-29T01:41:13;99955.61;;;10.22;71.10
70916;BME280;58557;50.982;-3.222;2023-12-29T01:46:04;99960.26;;;10.91;69.03
70916;BME280;58557;50.982;-3.222;2023-12-29T01:48:29;99959.22;;;10.90;68.12
70916;BME280;58557;50.982;-3.222;2023-12-29T01:50:55;99962.65;;;10.13;71.13
70916;BME280;58557;50.982;-3.222;2023-12-29T01:53:20;99965.13;;;10.44;70.35
70916;BME280;58557;50.982;-3.222;2023-12-29T01:55:46;99972.41;;;10.73;70.35
70916;BME280;58557;50.982;-3.222;2023-12-29T01:58:11;99969.94;;;11.24;69.49
70916;BME280;58557;50.982;-3.222;2023-12-29T02:00:37;99969.32;;;11.84;64.61
70916;BME280;58557;50.982;-3.222;2023-12-29T02:03:03;99970.01;;;11.98;65.29
70916;BME280;58557;50.982;-3.222;2023-12-29T02:05:28;99976.49;;;10.21;69.67
70916;BME280;58557;50.982;-3.222;2023-12-29T02:07:53;99967.42;;;10.52;70.69
70916;BME280;58557;50.982;-3.222;2023-12-29T02:10:19;99971.32;;;9.71;76.36
70916;BME280;58557;50.982;-3.222;2023-12-29T02:12:46;99976.13;;;9.11;78.69
70916;BME280;58557;50.982;-3.222;2023-12-29T02:15:10;99974.34;;;10.19;76.39
70916;BME280;58557;50.982;-3.222;2023-12-29T02:17:40;99967.85;;;9.49;77.89
70916;BME280;58557;50.982;-3.222;2023-12-29T02:20:01;99994.82;;;9.60;78.99
70916;BME280;58557;50.982;-3.222;2023-12-29T02:22:27;99989.63;;;10.81;76.87
70916;BME280;58557;50.982;-3.222;2023-12-29T02:24:53;99984.79;;;11.05;74.08
70916;BME280;58557;50.982;-3.222;2023-12-29T02:27:24;99983.04;;;10.78;74.30
70916;BME280;58557;50.982;-3.222;2023-12-29T02:29:48;99988.12;;;10.55;75.90
70916;BME280;58557;50.982;-3.222;2023-12-29T02:32:13;99993.23;;;10.48;75.76
70916;BME280;58557;50.982;-3.222;2023-12-29T02:34:37;99980.93;;;11.21;76.06
70916;BME280;58557;50.982;-3.222;2023-12-29T02:37:02;99986.82;;;11.44;71.08
70916;BME280;58557;50.982;-3.222;2023-12-29T02:39:27;99979.83;;;12.51;67.70
70916;BME280;58557;50.982;-3.222;2023-12-29T02:41:53;99975.13;;;11.96;68.84
70916;BME280;58557;50.982;-3.222;2023-12-29T02:44:18;99973.99;;;12.55;68.69
70916;BME280;58557;50.982;-3.222;2023-12-29T02:46:44;99973.49;;;13.64;64.19
70916;BME280;58557;50.982;-3.222;2023-12-29T02:49:10;99966.51;;;13.18;64.24
70916;BME280;58557;50.982;-3.222;2023-12-29T02:51:35;99971.56;;;13.45;62.11
70916;BME280;58557;50.982;-3.222;2023-12-29T02:54:01;99972.14;;;13.16;64.03
70916;BME280;58557;50.982;-3.222;2023-12-29T02:56:26;99974.21;;;12.51;66.37
70916;BME280;58557;50.982;-3.222;2023-12-29T02:58:52;99978.37;;;13.39;64.32
70916;BME280;58557;50.982;-3.222;2023-12-29T03:01:18;99985.12;;;11.62;68.47
70916;BME280;58557;50.982;-3.222;2023-12-29T03:03:43;99985.87;;;11.43;71.19
70916;BME280;58557;50.982;-3.222;2023-12-29T03:06:09;99980.12;;;11.05;71.28
70916;BME280;58557;50.982;-3.222;2023-12-29T03:08:35;99987.84;;;11.20;71.62
70916;BME280;58557;50.982;-3.222;2023-12-29T03:11:00;99986.12;;;11.97;69.46
70916;BME280;58557;50.982;-3.222;2023-12-29T03:13:25;99981.46;;;11.15;72.77
70916;BME280;58557;50.982;-3.222;2023-12-29T03:15:51;99971.47;;;11.98;69.79
70916;BME280;58557;50.982;-3.222;2023-12-29T03:18:16;99967.94;;;12.04;70.02
70916;BME280;58557;50.982;-3.222;2023-12-29T03:20:42;99970.28;;;10.89;72.18
70916;BME280;58557;50.982;-3.222;2023-12-29T03:23:08;99974.51;;;11.25;73.06
70916;BME280;58557;50.982;-3.222;2023-12-29T03:25:33;99969.82;;;10.68;75.47
70916;BME280;58557;50.982;-3.222;2023-12-29T03:27:59;99965.89;;;9.77;79.18
70916;BME280;58557;50.982;-3.222;2023-12-29T03:30:25;99963.74;;;11.67;76.25
70916;BME280;58557;50.982;-3.222;2023-12-29T03:32:51;99954.20;;;9.33;78.44
70916;BME280;58557;50.982;-3.222;2023-12-29T03:35:16;99953.19;;;10.39;76.27
70916;BME280;58557;50.982;-3.222;2023-12-29T03:37:42;99956.00;;;10.37;77.14
70916;BME280;58557;50.982;-3.222;2023-12-29T03:40:09;99956.80;;;10.45;77.32
70916;BME280;58557;50.982;-3.222;2023-12-29T03:42:34;99963.98;;;11.66;73.57
70916;BME280;58557;50.982;-3.222;2023-12-29T03:44:59;99961.47;;;10.90;72.62
70916;BME280;58557;50.982;-3.222;2023-12-29T03:47:24;99962.98;;;10.95;70.65
70916;BME280;58557;50.982;-3.222;2023-12-29T03:49:49;99964.14;;;10.32;74.47
70916;BME280;58557;50.982;-3.222;2023-12-29T03:52:15;99959.68;;;11.37;70.09
70916;BME280;58557;50.982;-3.222;2023-12-29T03:54:41;99954.66;;;10.46;72.65
70916;BME280;58557;50.982;-3.222;2023-12-29T03:57:07;99950.38;;;10.45;73.42
70916;BME280;58557;50.982;-3.222;2023-12-29T03:59:36;99953.70;;;11.13;72.81
70916;BME280;58557;50.982;-3.222;2023-12-29T04:01:58;99949.68;;;10.18;72.90
70916;BME280;58557;50.982;-3.222;2023-12-29T04:04:24;99948.84;;;10.68;70.79
70916;BME280;58557;50.982;-3.222;2023-12-29T04:06:50;99955.23;;;11.08;69.04
70916;BME280;58557;50.982;-3.222;2023-12-29T04:09:15;99955.99;;;11.58;66.13
70916;BME280;58557;50.982;-3.222;2023-12-29T04:11:41;99949.86;;;10.88;69.06
70916;BME280;58557;50.982;-3.222;2023-12-29T04:14:06;99954.25;;;11.01;68.42
70916;BME280;58557;50.982;-3.222;2023-12-29T04:16:32;99951.08;;;10.39;68.55
70916;BME280;58557;50.982;-3.222;2023-12-29T04:18:57;99955.64;;;11.18;70.13
70916;BME280;58557;50.982;-3.222;2023-12-29T04:21:23;99952.30;;;11.12;67.37
70916;BME280;58557;50.982;-3.222;2023-12-29T04:23:48;99952.12;;;11.41;67.24
70916;BME280;58557;50.982;-3.222;2023-12-29T04:26:14;99958.65;;;11.45;66.51
70916;BME280;58557;50.982;-3.222;2023-12-29T04:28:39;99949.17;;;9.89;71.63
70916;BME280;58557;50.982;-3.222;2023-12-29T04:31:05;99948.21;;;10.21;69.98
70916;BME280;58557;50.982;-3.222;2023-12-29T04:33:31;99946.64;;;10.61;72.04
70916;BME280;58557;50.982;-3.222;2023-12-29T04:35:56;99946.56;;;10.30;71.59
70916;BME280;58557;50.982;-3.222;2023-12-29T04:38:22;99949.91;;;10.46;72.00
70916;BME280;58557;50.982;-3.222;2023-12-29T04:40:48;99953.68;;;9.49;74.20
70916;BME280;58557;50.982;-3.222;2023-12-29T04:43:14;99949.15;;;10.13;73.53
70916;BME280;58557;50.982;-3.222;2023-12-29T04:45:39;99951.75;;;9.87;72.36
70916;BME280;58557;50.982;-3.222;2023-12-29T04:48:05;99951.25;;;10.97;68.86
70916;BME280;58557;50.982;-3.222;2023-12-29T04:50:30;99948.52;;;11.18;70.09
70916;BME280;58557;50.982;-3.222;2023-12-29T04:52:56;99949.85;;;10.36;71.91
70916;BME280;58557;50.982;-3.222;2023-12-29T04:55:21;99953.03;;;10.28;69.97
70916;BME280;58557;50.982;-3.222;2023-12-29T04:57:47;99960.09;;;11.27;68.00
70916;BME280;58557;50.982;-3.222;2023-12-29T05:00:13;99958.40;;;11.37;67.40
70916;BME280;58557;50.982;-3.222;2023-12-29T05:02:38;99959.49;;;11.56;68.13
70916;BME280;58557;50.982;-3.222;2023-12-29T05:05:04;99965.20;;;10.56;70.00
70916;BME280;58557;50.982;-3.222;2023-12-29T05:07:29;99968.56;;;10.65;68.76
70916;BME280;58557;50.982;-3.222;2023-12-29T05:09:55;99974.14;;;11.58;66.50
70916;BME280;58557;50.982;-3.222;2023-12-29T05:12:21;99974.22;;;11.75;66.35
70916;BME280;58557;50.982;-3.222;2023-12-29T05:14:47;99977.81;;;11.64;66.03
70916;BME280;58557;50.982;-3.222;2023-12-29T05:17:12;99977.20;;;10.99;68.47
70916;BME280;58557;50.982;-3.222;2023-12-29T05:19:38;99972.61;;;11.32;66.60
70916;BME280;58557;50.982;-3.222;2023-12-29T05:22:04;99970.42;;;12.03;64.54
70916;BME280;58557;50.982;-3.222;2023-12-29T05:24:30;99972.11;;;12.17;63.40
70916;BME280;58557;50.982;-3.222;2023-12-29T05:26:55;99969.72;;;11.96;64.58
70916;BME280;58557;50.982;-3.222;2023-12-29T05:29:20;99973.94;;;11.77;63.56
70916;BME280;58557;50.982;-3.222;2023-12-29T05:31:46;99972.04;;;11.14;66.12
70916;BME280;58557;50.982;-3.222;2023-12-29T05:34:12;99977.42;;;11.74;65.45
70916;BME280;58557;50.982;-3.222;2023-12-29T05:36:37;99981.07;;;11.42;65.41
70916;BME280;58557;50.982;-3.222;2023-12-29T05:39:03;99972.64;;;11.18;69.89
70916;BME280;58557;50.982;-3.222;2023-12-29T05:41:29;99969.16;;;10.08;70.65
70916;BME280;58557;50.982;-3.222;2023-12-29T05:43:55;99977.85;;;10.72;68.24
70916;BME280;58557;50.982;-3.222;2023-12-29T05:46:20;99974.92;;;9.32;73.68
70916;BME280;58557;50.982;-3.222;2023-12-29T05:48:46;99968.78;;;10.84;69.56
70916;BME280;58557;50.982;-3.222;2023-12-29T05:51:13;99972.81;;;10.50;69.07
70916;BME280;58557;50.982;-3.222;2023-12-29T05:53:38;99967.65;;;11.09;67.87
70916;BME280;58557;50.982;-3.222;2023-12-29T05:56:03;99976.37;;;10.71;67.95
70916;BME280;58557;50.982;-3.222;2023-12-29T05:58:28;99968.47;;;10.52;65.88
70916;BME280;58557;50.982;-3.222;2023-12-29T06:00:55;99976.87;;;11.69;64.34
70916;BME280;58557;50.982;-3.222;2023-12-29T06:03:20;99973.39;;;11.93;64.54
70916;BME280;58557;50.982;-3.222;2023-12-29T06:05:45;99976.27;;;11.58;64.72
70916;BME280;58557;50.982;-3.222;2023-12-29T06:08:11;99973.86;;;11.69;65.25
70916;BME280;58557;50.982;-3.222;2023-12-29T06:10:37;99968.53;;;11.71;66.63
70916;BME280;58557;50.982;-3.222;2023-12-29T06:13:03;99966.37;;;11.45;67.93
70916;BME280;58557;50.982;-3.222;2023-12-29T06:15:28;99964.95;;;11.51;67.08
70916;BME280;58557;50.982;-3.222;2023-12-29T06:17:54;99961.14;;;11.26;68.29
70916;BME280;58557;50.982;-3.222;2023-12-29T06:20:20;99961.02;;;11.48;65.78
70916;BME280;58557;50.982;-3.222;2023-12-29T06:22:46;99958.69;;;11.56;65.89
70916;BME280;58557;50.982;-3.222;2023-12-29T06:25:12;99954.37;;;12.37;63.34
70916;BME280;58557;50.982;-3.222;2023-12-29T06:27:37;99950.40;;;11.47;64.34
70916;BME280;58557;50.982;-3.222;2023-12-29T06:30:03;99946.65;;;12.05;64.15
70916;BME280;58557;50.982;-3.222;2023-12-29T06:32:29;99946.24;;;12.34;62.66
70916;BME280;58557;50.982;-3.222;2023-12-29T06:34:54;99951.48;;;12.12;60.41
70916;BME280;58557;50.982;-3.222;2023-12-29T06:37:20;99959.14;;;11.96;61.75
70916;BME280;58557;50.982;-3.222;2023-12-29T06:39:46;99955.11;;;11.82;62.58
70916;BME280;58557;50.982;-3.222;2023-12-29T06:42:11;99950.75;;;11.25;63.81
70916;BME280;58557;50.982;-3.222;2023-12-29T06:44:37;99960.16;;;10.91;66.09
70916;BME280;58557;50.982;-3.222;2023-12-29T06:47:03;99960.12;;;10.96;66.43
70916;BME280;58557;50.982;-3.222;2023-12-29T06:49:28;99964.18;;;10.30;68.59
70916;BME280;58557;50.982;-3.222;2023-12-29T06:51:54;99968.55;;;11.67;66.20
70916;BME280;58557;50.982;-3.222;2023-12-29T06:54:20;99969.95;;;10.87;66.44
70916;BME280;58557;50.982;-3.222;2023-12-29T06:56:45;99971.58;;;11.56;64.63
70916;BME280;58557;50.982;-3.222;2023-12-29T06:59:11;99966.52;;;11.40;65.62
70916;BME280;58557;50.982;-3.222;2023-12-29T07:01:38;99966.55;;;10.11;70.18
70916;BME280;58557;50.982;-3.222;2023-12-29T07:04:01;99971.61;;;11.02;67.69
70916;BME280;58557;50.982;-3.222;2023-12-29T07:06:27;99972.49;;;11.11;67.23
70916;BME280;58557;50.982;-3.222;2023-12-29T07:08:53;99966.69;;;11.05;68.09
70916;BME280;58557;50.982;-3.222;2023-12-29T07:11:19;99963.13;;;11.46;66.11
70916;BME280;58557;50.982;-3.222;2023-12-29T07:13:44;99962.95;;;11.08;64.53
70916;BME280;58557;50.982;-3.222;2023-12-29T07:16:10;99963.44;;;11.29;64.88
70916;BME280;58557;50.982;-3.222;2023-12-29T07:18:36;99967.12;;;12.08;62.42
70916;BME280;58557;50.982;-3.222;2023-12-29T07:21:01;99969.52;;;11.68;64.30
70916;BME280;58557;50.982;-3.222;2023-12-29T07:23:27;99969.42;;;11.12;64.75
70916;BME280;58557;50.982;-3.222;2023-12-29T07:25:53;99965.61;;;11.79;64.40
70916;BME280;58557;50.982;-3.222;2023-12-29T07:28:18;99964.92;;;11.81;64.85
70916;BME280;58557;50.982;-3.222;2023-12-29T07:30:44;99947.03;;;10.96;67.95
70916;BME280;58557;50.982;-3.222;2023-12-29T07:33:09;99948.58;;;11.02;67.92
70916;BME280;58557;50.982;-3.222;2023-12-29T07:35:35;99955.48;;;11.00;69.04
70916;BME280;58557;50.982;-3.222;2023-12-29T07:38:01;99954.43;;;11.17;68.00
70916;BME280;58557;50.982;-3.222;2023-12-29T07:40:27;99951.40;;;10.70;67.76
70916;BME280;58557;50.982;-3.222;2023-12-29T07:42:53;99950.25;;;10.29;68.85
70916;BME280;58557;50.982;-3.222;2023-12-29T07:45:19;99955.35;;;10.56;69.49
70916;BME280;58557;50.982;-3.222;2023-12-29T07:47:44;99958.64;;;10.60;67.64
70916;BME280;58557;50.982;-3.222;2023-12-29T07:50:10;99964.10;;;10.17;70.09
70916;BME280;58557;50.982;-3.222;2023-12-29T07:52:36;99961.03;;;11.25;66.75
70916;BME280;58557;50.982;-3.222;2023-12-29T07:55:02;99964.23;;;11.17;66.39
70916;BME280;58557;50.982;-3.222;2023-12-29T07:57:27;99966.81;;;12.00;64.06
70916;BME280;58557;50.982;-3.222;2023-12-29T07:59:53;99971.28;;;12.32;62.71
70916;BME280;58557;50.982;-3.222;2023-12-29T08:02:19;99973.85;;;11.85;63.83
70916;BME280;58557;50.982;-3.222;2023-12-29T08:04:45;99977.52;;;12.09;62.19
70916;BME280;58557;50.982;-3.222;2023-12-29T08:07:11;99975.20;;;12.27;64.09
70916;BME280;58557;50.982;-3.222;2023-12-29T08:09:36;99979.47;;;11.97;63.80
70916;BME280;58557;50.982;-3.222;2023-12-29T08:12:02;99978.27;;;11.38;64.34
70916;BME280;58557;50.982;-3.222;2023-12-29T08:14:28;99974.27;;;11.67;64.08
70916;BME280;58557;50.982;-3.222;2023-12-29T08:16:54;99972.54;;;11.60;64.23
70916;BME280;58557;50.982;-3.222;2023-12-29T08:19:19;99975.69;;;11.78;65.54
70916;BME280;58557;50.982;-3.222;2023-12-29T08:21:45;99958.79;;;10.96;66.39
70916;BME280;58557;50.982;-3.222;2023-12-29T08:24:10;99959.87;;;11.26;66.10
70916;BME280;58557;50.982;-3.222;2023-12-29T08:26:43;99964.46;;;11.63;65.36
70916;BME280;58557;50.982;-3.222;2023-12-29T08:29:02;99958.16;;;10.85;66.76
70916;BME280;58557;50.982;-3.222;2023-12-29T08:31:28;99957.38;;;9.91;70.53
70916;BME280;58557;50.982;-3.222;2023-12-29T08:33:54;99962.87;;;10.94;69.25
70916;BME280;58557;50.982;-3.222;2023-12-29T08:36:21;99961.80;;;10.48;69.18
70916;BME280;58557;50.982;-3.222;2023-12-29T08:38:45;99964.63;;;10.23;69.80
70916;BME280;58557;50.982;-3.222;2023-12-29T08:41:14;99965.32;;;10.91;69.30
70916;BME280;58557;50.982;-3.222;2023-12-29T08:43:37;99957.09;;;11.09;68.15
70916;BME280;58557;50.982;-3.222;2023-12-29T08:46:03;99967.43;;;11.13;69.13
70916;BME280;58557;50.982;-3.222;2023-12-29T08:48:28;99971.67;;;10.71;69.63
70916;BME280;58557;50.982;-3.222;2023-12-29T08:50:54;99980.84;;;10.99;69.36
70916;BME280;58557;50.982;-3.222;2023-12-29T08:53:20;99987.77;;;11.42;68.27
70916;BME280;58557;50.982;-3.222;2023-12-29T08:55:46;99989.73;;;11.17;68.84
70916;BME280;58557;50.982;-3.222;2023-12-29T08:58:12;99990.09;;;11.16;69.56
70916;BME280;58557;50.982;-3.222;2023-12-29T09:00:37;99995.16;;;9.70;72.39
70916;BME280;58557;50.982;-3.222;2023-12-29T09:03:04;99993.42;;;11.36;69.94
70916;BME280;58557;50.982;-3.222;2023-12-29T09:05:29;99994.55;;;10.82;70.23
70916;BME280;58557;50.982;-3.222;2023-12-29T09:07:54;99991.42;;;10.85;69.50
70916;BME280;58557;50.982;-3.222;2023-12-29T09:10:20;99992.46;;;11.26;69.62
70916;BME280;58557;50.982;-3.222;2023-12-29T09:12:46;99979.76;;;10.44;72.03
70916;BME280;58557;50.982;-3.222;2023-12-29T09:15:12;99982.93;;;9.96;76.40
70916;BME280;58557;50.982;-3.222;2023-12-29T09:17:38;99970.29;;;9.86;77.83
70916;BME280;58557;50.982;-3.222;2023-12-29T09:20:03;99968.90;;;9.96;77.50
70916;BME280;58557;50.982;-3.222;2023-12-29T09:22:28;99964.44;;;10.07;78.17
70916;BME280;58557;50.982;-3.222;2023-12-29T09:24:54;99960.93;;;9.11;78.25
70916;BME280;58557;50.982;-3.222;2023-12-29T09:27:19;99970.41;;;8.83;80.41
70916;BME280;58557;50.982;-3.222;2023-12-29T09:29:45;99973.00;;;9.45;78.67
70916;BME280;58557;50.982;-3.222;2023-12-29T09:32:11;99973.29;;;9.41;77.25
70916;BME280;58557;50.982;-3.222;2023-12-29T09:34:36;99973.69;;;8.88;78.19
70916;BME280;58557;50.982;-3.222;2023-12-29T09:37:02;99977.00;;;9.36;74.54
70916;BME280;58557;50.982;-3.222;2023-12-29T09:39:28;99980.82;;;9.68;72.97
70916;BME280;58557;50.982;-3.222;2023-12-29T09:41:57;99983.42;;;9.66;75.39
70916;BME280;58557;50.982;-3.222;2023-12-29T09:44:20;99983.12;;;9.72;73.14
70916;BME280;58557;50.982;-3.222;2023-12-29T09:46:49;99979.00;;;9.25;75.63
70916;BME280;58557;50.982;-3.222;2023-12-29T09:49:10;99971.73;;;8.73;75.64
70916;BME280;58557;50.982;-3.222;2023-12-29T09:51:36;99977.11;;;9.00;75.11
70916;BME280;58557;50.982;-3.222;2023-12-29T09:54:01;99981.12;;;9.25;76.26
70916;BME280;58557;50.982;-3.222;2023-12-29T09:56:26;99984.73;;;8.90;76.62
70916;BME280;58557;50.982;-3.222;2023-12-29T09:58:52;99981.88;;;9.30;75.32
70916;BME280;58557;50.982;-3.222;2023-12-29T10:01:18;99983.45;;;9.90;72.79
70916;BME280;58557;50.982;-3.222;2023-12-29T10:03:43;99986.64;;;9.62;71.92
70916;BME280;58557;50.982;-3.222;2023-12-29T10:06:13;99995.76;;;10.00;71.77
70916;BME280;58557;50.982;-3.222;2023-12-29T10:08:37;99978.48;;;9.32;72.69
70916;BME280;58557;50.982;-3.222;2023-12-29T10:11:02;99976.86;;;10.16;70.87
70916;BME280;58557;50.982;-3.222;2023-12-29T10:13:27;99978.01;;;10.25;70.47
70916;BME280;58557;50.982;-3.222;2023-12-29T10:15:59;99983.41;;;10.19;70.25
70916;BME280;58557;50.982;-3.222;2023-12-29T10:18:22;99985.39;;;9.73;73.73
70916;BME280;58557;50.982;-3.222;2023-12-29T10:20:50;99984.50;;;10.93;71.02
70916;BME280;58557;50.982;-3.222;2023-12-29T10:23:11;99987.90;;;11.40;68.28
70916;BME280;58557;50.982;-3.222;2023-12-29T10:25:35;99991.03;;;10.20;71.72
70916;BME280;58557;50.982;-3.222;2023-12-29T10:28:01;99992.02;;;10.27;73.02
70916;BME280;58557;50.982;-3.222;2023-12-29T10:30:27;100008.80;;;9.85;73.08
70916;BME280;58557;50.982;-3.222;2023-12-29T10:32:53;100003.27;;;10.58;73.76
70916;BME280;58557;50.982;-3.222;2023-12-29T10:35:18;99998.77;;;10.96;69.86
70916;BME280;58557;50.982;-3.222;2023-12-29T10:37:44;99992.10;;;12.02;66.92
70916;BME280;58557;50.982;-3.222;2023-12-29T10:40:18;99994.63;;;10.59;70.83
70916;BME280;58557;50.982;-3.222;2023-12-29T10:42:42;99997.99;;;9.97;74.32
70916;BME280;58557;50.982;-3.222;2023-12-29T10:45:05;100000.83;;;10.61;75.06
70916;BME280;58557;50.982;-3.222;2023-12-29T10:47:27;100007.86;;;10.50;74.57
70916;BME280;58557;50.982;-3.222;2023-12-29T10:49:58;100011.86;;;10.83;73.28
70916;BME280;58557;50.982;-3.222;2023-12-29T10:52:19;100030.53;;;9.92;75.81
70916;BME280;58557;50.982;-3.222;2023-12-29T10:54:44;100038.38;;;9.76;78.47
70916;BME280;58557;50.982;-3.222;2023-12-29T10:57:11;100036.27;;;10.61;76.34
70916;BME280;58557;50.982;-3.222;2023-12-29T10:59:36;100036.12;;;10.77;73.99
70916;BME280;58557;50.982;-3.222;2023-12-29T11:02:02;100046.08;;;10.03;77.22
70916;BME280;58557;50.982;-3.222;2023-12-29T11:04:27;100046.74;;;9.58;79.11
70916;BME280;58557;50.982;-3.222;2023-12-29T11:06:53;100050.14;;;9.38;78.35
70916;BME280;58557;50.982;-3.222;2023-12-29T11:09:28;100047.02;;;8.84;79.69
70916;BME280;58557;50.982;-3.222;2023-12-29T11:11:45;100036.59;;;9.13;77.16
70916;BME280;58557;50.982;-3.222;2023-12-29T11:14:11;100024.83;;;8.71;77.99
70916;BME280;58557;50.982;-3.222;2023-12-29T11:16:36;100039.65;;;8.96;79.14
70916;BME280;58557;50.982;-3.222;2023-12-29T11:19:02;100039.63;;;8.67;80.17
70916;BME280;58557;50.982;-3.222;2023-12-29T11:21:29;100040.93;;;8.43;77.52
70916;BME280;58557;50.982;-3.222;2023-12-29T11:23:53;100030.32;;;8.77;78.60
70916;BME280;58557;50.982;-3.222;2023-12-29T11:26:20;100026.78;;;8.26;78.09
70916;BME280;58557;50.982;-3.222;2023-12-29T11:28:46;100024.51;;;9.79;77.16
70916;BME280;58557;50.982;-3.222;2023-12-29T11:31:11;100036.98;;;8.45;77.91
70916;BME280;58557;50.982;-3.222;2023-12-29T11:33:40;100040.97;;;9.17;75.64
70916;BME280;58557;50.982;-3.222;2023-12-29T11:36:06;100030.20;;;9.19;74.35
70916;BME280;58557;50.982;-3.222;2023-12-29T11:38:44;100041.25;;;10.05;72.82
70916;BME280;58557;50.982;-3.222;2023-12-29T11:41:00;100044.34;;;9.41;72.35
70916;BME280;58557;50.982;-3.222;2023-12-29T11:43:20;100042.70;;;10.05;71.87
70916;BME280;58557;50.982;-3.222;2023-12-29T11:45:45;100042.10;;;9.47;69.78
70916;BME280;58557;50.982;-3.222;2023-12-29T11:48:11;100049.86;;;8.86;73.58
70916;BME280;58557;50.982;-3.222;2023-12-29T11:50:38;100050.97;;;9.36;72.16
70916;BME280;58557;50.982;-3.222;2023-12-29T11:53:03;100046.14;;;9.07;71.97
70916;BME280;58557;50.982;-3.222;2023-12-29T11:55:30;100040.66;;;9.51;67.08
70916;BME280;58557;50.982;-3.222;2023-12-29T11:57:54;100039.44;;;9.40;69.94
70916;BME280;58557;50.982;-3.222;2023-12-29T12:00:20;100051.68;;;9.87;65.56
70916;BME280;58557;50.982;-3.222;2023-12-29T12:02:45;100046.01;;;9.49;65.62
70916;BME280;58557;50.982;-3.222;2023-12-29T12:05:11;100050.81;;;8.09;71.43
70916;BME280;58557;50.982;-3.222;2023-12-29T12:12:39;100065.34;;;8.49;72.11
70916;BME280;58557;50.982;-3.222;2023-12-29T12:14:53;100061.71;;;7.81;76.00
70916;BME280;58557;50.982;-3.222;2023-12-29T12:17:28;100059.03;;;7.51;76.56
70916;BME280;58557;50.982;-3.222;2023-12-29T12:19:45;100056.18;;;7.25;78.81
70916;BME280;58557;50.982;-3.222;2023-12-29T12:22:10;100062.15;;;7.42;77.31
70916;BME280;58557;50.982;-3.222;2023-12-29T12:24:36;100051.26;;;8.28;74.36
70916;BME280;58557;50.982;-3.222;2023-12-29T12:27:02;100056.43;;;8.80;75.16
70916;BME280;58557;50.982;-3.222;2023-12-29T12:29:27;100052.42;;;8.59;73.09
70916;BME280;58557;50.982;-3.222;2023-12-29T12:31:54;100053.28;;;8.85;72.88
70916;BME280;58557;50.982;-3.222;2023-12-29T12:34:18;100056.26;;;7.73;76.08
70916;BME280;58557;50.982;-3.222;2023-12-29T12:36:48;100055.34;;;10.32;69.74
70916;BME280;58557;50.982;-3.222;2023-12-29T12:39:10;100056.68;;;9.87;67.99
70916;BME280;58557;50.982;-3.222;2023-12-29T12:41:36;100052.84;;;8.83;71.80
70916;BME280;58557;50.982;-3.222;2023-12-29T12:44:07;100066.27;;;8.49;75.37
70916;BME280;58557;50.982;-3.222;2023-12-29T12:46:26;100056.58;;;8.85;73.38
70916;BME280;58557;50.982;-3.222;2023-12-29T12:48:52;100047.44;;;8.79;72.42